createdAt,value
2018-12-03T00:01:07.548Z,5.30
2018-12-03T00:03:51.512Z,5.30
2018-12-03T00:06:33.542Z,5.40
2018-12-03T00:09:15.468Z,5.30
2018-12-03T00:11:57.697Z,5.30
2018-12-03T00:14:39.540Z,5.20
2018-12-03T00:17:21.263Z,5.30
2018-12-03T00:20:03.773Z,5.30
2018-12-03T00:22:45.897Z,5.40
2018-12-03T00:25:27.653Z,5.40
2018-12-03T00:28:09.500Z,5.40
2018-12-03T00:30:52.059Z,5.40
2018-12-03T00:33:34.222Z,5.30
2018-12-03T00:36:16.342Z,5.30
2018-12-03T00:38:58.647Z,5.30
2018-12-03T00:41:41.514Z,5.30
2018-12-03T00:44:23.877Z,6.00
2018-12-03T00:47:06.364Z,5.20
2018-12-03T00:49:48.422Z,5.20
2018-12-03T00:52:30.581Z,5.20
2018-12-03T00:55:12.556Z,5.20
2018-12-03T00:57:55.059Z,5.10
2018-12-03T01:00:37.515Z,5.10
2018-12-03T01:03:20.344Z,5.20
2018-12-03T01:06:02.566Z,5.20
2018-12-03T01:08:44.642Z,5.20
2018-12-03T01:11:26.912Z,5.30
2018-12-03T01:14:08.995Z,5.30
2018-12-03T01:16:51.007Z,5.20
2018-12-03T01:19:32.713Z,5.20
2018-12-03T01:22:14.776Z,5.20
2018-12-03T01:24:57.319Z,5.30
2018-12-03T01:27:39.316Z,5.30
2018-12-03T01:30:21.464Z,5.30
2018-12-03T01:36:22.640Z,5.30
2018-12-03T01:39:20.384Z,5.30
2018-12-03T01:42:18.884Z,5.30
2018-12-03T01:45:16.638Z,5.40
2018-12-03T01:48:14.072Z,5.40
2018-12-03T01:51:11.901Z,5.40
2018-12-03T01:54:09.326Z,5.50
2018-12-03T01:57:06.748Z,5.50
2018-12-03T02:00:05.157Z,5.50
2018-12-03T02:03:02.743Z,5.50
2018-12-03T02:06:00.572Z,5.50
2018-12-03T02:08:58.685Z,5.50
2018-12-03T02:11:56.250Z,5.50
2018-12-03T02:14:54.275Z,5.60
2018-12-03T02:17:51.974Z,5.60
2018-12-03T02:20:49.662Z,5.70
2018-12-03T02:23:47.017Z,5.80
2018-12-03T02:26:44.759Z,5.80
2018-12-03T02:29:42.631Z,5.80
2018-12-03T02:32:40.099Z,5.90
2018-12-03T02:35:37.144Z,5.90
2018-12-03T02:38:34.936Z,5.80
2018-12-03T02:41:32.312Z,5.70
2018-12-03T02:44:29.817Z,5.70
2018-12-03T02:47:27.701Z,5.80
2018-12-03T02:50:25.366Z,5.80
2018-12-03T02:53:23.477Z,5.80
2018-12-03T02:56:22.954Z,5.80
2018-12-03T02:59:23.145Z,5.80
2018-12-03T03:02:20.846Z,5.80
2018-12-03T03:05:18.431Z,5.80
2018-12-03T03:08:15.839Z,5.80
2018-12-03T03:11:16.380Z,5.80
2018-12-03T03:14:13.777Z,5.70
2018-12-03T03:17:11.375Z,5.80
2018-12-03T03:20:13.540Z,5.80
2018-12-03T03:23:10.923Z,5.80
2018-12-03T03:26:08.618Z,5.80
2018-12-03T03:29:05.649Z,5.70
2018-12-03T03:32:03.151Z,5.70
2018-12-03T03:35:00.317Z,5.70
2018-12-03T03:37:57.785Z,5.70
2018-12-03T03:40:55.615Z,5.60
2018-12-03T03:43:53.258Z,5.60
2018-12-03T03:46:50.577Z,5.60
2018-12-03T03:49:47.978Z,5.60
2018-12-03T03:52:45.312Z,5.60
2018-12-03T03:55:43.013Z,5.60
2018-12-03T03:58:40.710Z,5.60
2018-12-03T04:01:38.617Z,5.60
2018-12-03T04:04:36.163Z,5.60
2018-12-03T04:07:33.470Z,5.70
2018-12-03T04:10:31.134Z,5.70
2018-12-03T04:13:28.528Z,5.70
2018-12-03T04:16:26.398Z,5.60
2018-12-03T04:19:23.828Z,5.60
2018-12-03T04:22:21.479Z,5.60
2018-12-03T04:25:18.910Z,5.60
2018-12-03T04:28:16.384Z,5.60
2018-12-03T04:31:15.059Z,5.50
2018-12-03T04:34:12.770Z,5.50
2018-12-03T04:37:10.480Z,5.60
2018-12-03T04:40:13.729Z,5.70
2018-12-03T04:43:11.520Z,5.70
2018-12-03T04:46:09.278Z,5.70
2018-12-03T04:49:07.145Z,4.60
2018-12-03T04:52:04.806Z,5.80
2018-12-03T04:55:02.169Z,5.80
2018-12-03T04:58:01.051Z,5.90
2018-12-03T05:00:58.776Z,5.90
2018-12-03T05:03:56.254Z,5.80
2018-12-03T05:06:53.638Z,5.80
2018-12-03T05:09:51.118Z,5.80
2018-12-03T05:12:50.376Z,5.90
2018-12-03T05:15:47.854Z,5.90
2018-12-03T05:18:47.276Z,6.00
2018-12-03T05:21:44.965Z,6.00
2018-12-03T05:24:42.394Z,6.00
2018-12-03T05:27:39.915Z,6.10
2018-12-03T05:30:37.389Z,6.20
2018-12-03T05:33:34.900Z,6.10
2018-12-03T05:36:33.296Z,6.10
2018-12-03T05:39:30.874Z,6.20
2018-12-03T05:42:28.114Z,6.20
2018-12-03T05:45:25.572Z,6.20
2018-12-03T05:48:25.917Z,6.10
2018-12-03T05:51:23.533Z,6.10
2018-12-03T05:54:21.437Z,6.20
2018-12-03T05:57:22.403Z,6.20
2018-12-03T06:00:25.142Z,6.30
2018-12-03T06:03:22.921Z,6.10
2018-12-03T06:06:20.896Z,6.00
2018-12-03T06:09:18.283Z,6.00
2018-12-03T06:12:15.897Z,6.10
2018-12-03T06:15:18.452Z,6.10
2018-12-03T06:18:16.572Z,6.10
2018-12-03T06:21:14.497Z,6.20
2018-12-03T06:24:12.195Z,6.20
2018-12-03T06:27:12.273Z,6.30
2018-12-03T06:30:22.653Z,6.30
2018-12-03T06:33:21.822Z,6.10
2018-12-03T06:36:19.325Z,6.10
2018-12-03T06:39:16.988Z,6.10
2018-12-03T06:42:14.523Z,6.20
2018-12-03T06:45:14.629Z,6.30
2018-12-03T06:48:24.369Z,6.30
2018-12-03T06:51:22.343Z,6.30
2018-12-03T06:54:20.312Z,6.30
2018-12-03T06:57:17.541Z,6.30
2018-12-03T07:00:20.599Z,6.30
2018-12-03T07:03:18.130Z,6.40
2018-12-03T07:06:17.089Z,6.40
2018-12-03T07:09:15.402Z,6.40
2018-12-03T07:12:13.195Z,6.40
2018-12-03T07:15:13.277Z,6.50
2018-12-03T07:18:12.259Z,6.40
2018-12-03T07:21:12.608Z,6.40
2018-12-03T07:24:10.169Z,6.50
2018-12-03T07:27:08.077Z,6.40
2018-12-03T07:30:10.120Z,6.30
2018-12-03T07:33:07.829Z,6.40
2018-12-03T07:36:05.477Z,6.30
2018-12-03T07:39:03.084Z,6.50
2018-12-03T07:42:01.859Z,6.50
2018-12-03T07:45:00.775Z,6.60
2018-12-03T07:47:58.368Z,6.60
2018-12-03T07:50:57.466Z,6.70
2018-12-03T07:53:54.905Z,6.80
2018-12-03T07:56:52.592Z,6.80
2018-12-03T07:59:50.191Z,6.90
2018-12-03T08:02:47.570Z,6.90
2018-12-03T08:05:45.282Z,7.00
2018-12-03T08:08:42.823Z,7.00
2018-12-03T08:11:40.286Z,7.10
2018-12-03T08:14:38.688Z,7.20
2018-12-03T08:17:36.536Z,7.10
2018-12-03T08:21:16.226Z,7.10
2018-12-03T08:24:15.540Z,7.10
2018-12-03T08:27:13.565Z,7.10
2018-12-03T08:30:15.143Z,7.10
2018-12-03T08:33:12.912Z,7.10
2018-12-03T08:36:11.274Z,7.10
2018-12-03T08:39:12.301Z,7.10
2018-12-03T08:42:11.729Z,7.10
2018-12-03T08:45:09.191Z,7.10
2018-12-03T08:48:06.628Z,7.30
2018-12-03T08:51:04.291Z,7.90
2018-12-03T08:54:03.418Z,8.80
2018-12-03T08:57:00.778Z,9.50
2018-12-03T08:59:58.516Z,9.60
2018-12-03T09:02:58.043Z,9.40
2018-12-03T09:05:56.346Z,9.20
2018-12-03T09:08:54.825Z,8.90
2018-12-03T09:11:54.007Z,8.80
2018-12-03T09:14:51.472Z,8.50
2018-12-03T09:17:53.852Z,8.40
2018-12-03T09:20:51.854Z,8.40
2018-12-03T09:23:55.447Z,8.40
2018-12-03T09:26:52.985Z,8.40
2018-12-03T09:29:50.456Z,8.30
2018-12-03T09:32:48.222Z,8.30
2018-12-03T09:35:45.624Z,8.40
2018-12-03T09:39:17.491Z,8.60
2018-12-03T09:42:15.219Z,8.80
2018-12-03T09:45:30.618Z,8.90
2018-12-03T09:48:29.291Z,8.90
2018-12-03T09:51:38.546Z,8.80
2018-12-03T09:54:36.082Z,8.90
2018-12-03T09:57:33.802Z,9.00
2018-12-03T10:00:31.336Z,9.20
2018-12-03T10:03:38.894Z,9.50
2018-12-03T10:06:36.217Z,9.70
2018-12-03T10:09:40.156Z,9.90
2018-12-03T10:12:37.210Z,10.10
2018-12-03T10:15:34.907Z,10.20
2018-12-03T10:18:32.853Z,10.40
2018-12-03T10:21:30.771Z,10.60
2018-12-03T10:24:28.442Z,10.90
2018-12-03T10:27:25.459Z,11.10
2018-12-03T10:30:23.301Z,11.40
2018-12-03T10:33:26.249Z,11.80
2018-12-03T10:36:23.377Z,12.40
2018-12-03T10:39:35.024Z,13.00
2018-12-03T10:42:32.075Z,13.40
2018-12-03T10:45:29.206Z,13.60
2018-12-03T10:48:26.809Z,13.90
2018-12-03T10:51:24.201Z,14.00
2018-12-03T10:54:21.634Z,14.40
2018-12-03T10:57:20.209Z,15.70
2018-12-03T11:00:36.275Z,16.70
2018-12-03T11:03:50.970Z,17.30
2018-12-03T11:06:48.803Z,17.00
2018-12-03T11:09:46.038Z,16.70
2018-12-03T11:12:43.354Z,17.80
2018-12-03T11:15:41.102Z,19.00
2018-12-03T11:18:54.212Z,20.90
2018-12-03T11:21:51.999Z,20.70
2018-12-03T11:24:49.340Z,19.70
2018-12-03T11:27:52.036Z,20.80
2018-12-03T11:30:54.265Z,22.00
2018-12-03T11:33:53.653Z,22.80
2018-12-03T11:36:54.538Z,23.10
2018-12-03T11:39:57.347Z,22.60
2018-12-03T11:42:55.699Z,22.50
2018-12-03T11:45:54.217Z,21.70
2018-12-03T11:48:51.119Z,21.20
2018-12-03T11:51:47.931Z,21.70
2018-12-03T11:54:45.352Z,21.20
2018-12-03T11:57:42.780Z,19.80
2018-12-03T12:00:41.277Z,18.30
2018-12-03T12:03:44.519Z,17.40
2018-12-03T12:06:42.056Z,16.40
2018-12-03T12:09:39.647Z,15.70
2018-12-03T12:12:38.647Z,15.40
2018-12-03T12:15:36.315Z,15.10
2018-12-03T12:18:34.742Z,15.10
2018-12-03T12:21:31.830Z,15.30
2018-12-03T12:24:28.780Z,15.50
2018-12-03T12:27:26.206Z,15.50
2018-12-03T12:30:23.466Z,15.40
2018-12-03T12:33:20.901Z,15.50
2018-12-03T12:36:18.384Z,15.50
2018-12-03T12:39:15.492Z,15.40
2018-12-03T12:42:12.795Z,15.30
2018-12-03T12:45:25.914Z,15.20
2018-12-03T12:48:23.437Z,15.10
2018-12-03T12:51:21.383Z,14.80
2018-12-03T12:54:18.401Z,14.70
2018-12-03T12:57:15.911Z,14.60
2018-12-03T13:00:19.127Z,14.40
2018-12-03T13:03:16.497Z,14.30
2018-12-03T13:06:13.621Z,14.10
2018-12-03T13:09:12.512Z,14.10
2018-12-03T13:12:11.274Z,14.10
2018-12-03T13:15:14.159Z,14.00
2018-12-03T13:18:12.921Z,14.00
2018-12-03T13:21:10.239Z,13.90
2018-12-03T13:24:08.904Z,13.90
2018-12-03T13:27:06.740Z,13.90
2018-12-03T13:30:05.718Z,14.00
2018-12-03T13:33:02.719Z,14.00
2018-12-03T13:36:00.126Z,14.00
2018-12-03T13:38:57.366Z,14.10
2018-12-03T13:41:54.252Z,14.10
2018-12-03T13:44:51.430Z,14.20
2018-12-03T13:47:49.137Z,14.20
2018-12-03T13:50:46.248Z,14.20
2018-12-03T13:53:43.312Z,14.10
2018-12-03T13:56:42.066Z,14.00
2018-12-03T13:59:39.453Z,13.80
2018-12-03T14:02:36.609Z,13.70
2018-12-03T14:05:41.932Z,13.50
2018-12-03T14:09:24.004Z,13.40
2018-12-03T14:13:17.535Z,13.30
2018-12-03T14:16:55.802Z,13.30
2018-12-03T14:20:00.140Z,13.20
2018-12-03T14:23:08.575Z,13.20
2018-12-03T14:26:06.105Z,13.20
2018-12-03T14:29:03.026Z,13.10
2018-12-03T14:32:00.166Z,13.10
2018-12-03T14:34:58.030Z,13.00
2018-12-03T14:37:55.713Z,12.90
2018-12-03T14:40:53.907Z,13.00
2018-12-03T14:43:50.764Z,13.00
2018-12-03T14:46:47.898Z,13.00
2018-12-03T14:49:45.379Z,12.80
2018-12-03T14:52:42.849Z,12.70
2018-12-03T14:55:40.053Z,12.60
2018-12-03T14:58:37.101Z,12.50
2018-12-03T15:01:35.922Z,12.40
2018-12-03T15:04:33.280Z,12.20
2018-12-03T15:07:33.247Z,12.10
2018-12-03T15:10:31.896Z,12.10
2018-12-03T15:13:33.730Z,12.00
2018-12-03T15:16:31.056Z,11.90
2018-12-03T15:19:28.972Z,11.90
2018-12-03T15:22:25.880Z,11.90
2018-12-03T15:25:23.590Z,11.80
2018-12-03T15:28:21.049Z,11.70
2018-12-03T15:31:18.095Z,11.60
2018-12-03T15:34:15.987Z,11.70
2018-12-03T15:37:13.108Z,11.60
2018-12-03T15:40:18.206Z,11.60
2018-12-03T15:43:16.989Z,11.60
2018-12-03T15:46:14.551Z,11.50
2018-12-03T15:49:12.760Z,11.50
2018-12-03T15:52:10.086Z,11.40
2018-12-03T15:55:09.309Z,11.30
2018-12-03T15:58:06.835Z,11.20
2018-12-03T16:01:04.885Z,11.20
2018-12-03T16:04:02.383Z,11.10
2018-12-03T16:07:00.201Z,11.00
2018-12-03T16:09:58.283Z,10.80
2018-12-03T16:12:55.589Z,10.60
2018-12-03T16:15:53.280Z,10.50
2018-12-03T16:18:53.243Z,10.60
2018-12-03T16:21:50.859Z,10.60
2018-12-03T16:24:48.656Z,10.50
2018-12-03T16:27:47.276Z,10.50
2018-12-03T16:30:45.113Z,10.50
2018-12-03T16:33:42.457Z,10.60
2018-12-03T16:36:40.050Z,10.70
2018-12-03T16:39:38.049Z,10.60
2018-12-03T16:42:35.122Z,10.70
2018-12-03T16:45:32.164Z,10.70
2018-12-03T16:48:29.647Z,10.70
2018-12-03T16:51:27.319Z,10.80
2018-12-03T16:54:25.038Z,10.90
2018-12-03T16:57:22.822Z,10.80
2018-12-03T17:00:22.210Z,10.80
2018-12-03T17:03:19.728Z,10.80
2018-12-03T17:06:17.420Z,10.80
2018-12-03T17:09:17.820Z,10.90
2018-12-03T17:12:15.179Z,11.00
2018-12-03T17:15:12.839Z,11.00
2018-12-03T17:18:12.059Z,11.00
2018-12-03T17:22:19.191Z,11.00
2018-12-03T17:25:26.322Z,11.00
2018-12-03T17:28:24.091Z,11.00
2018-12-03T17:31:21.491Z,11.10
2018-12-03T17:34:19.097Z,11.00
2018-12-03T17:37:16.955Z,11.10
2018-12-03T17:40:15.404Z,11.10
2018-12-03T17:43:13.061Z,11.10
2018-12-03T17:46:10.687Z,11.10
2018-12-03T17:49:10.620Z,11.20
2018-12-03T17:52:08.095Z,11.10
2018-12-03T17:55:06.122Z,11.10
2018-12-03T17:58:06.319Z,11.20
2018-12-03T18:01:03.525Z,11.10
2018-12-03T18:04:00.697Z,11.20
2018-12-03T18:06:58.253Z,11.20
2018-12-03T18:09:56.189Z,11.20
2018-12-03T18:12:53.568Z,11.30
2018-12-03T18:15:53.025Z,11.40
2018-12-03T18:18:52.238Z,11.40
2018-12-03T18:21:50.048Z,11.40
2018-12-03T18:24:48.572Z,11.50
2018-12-03T18:27:45.674Z,11.50
2018-12-03T18:30:42.569Z,11.50
2018-12-03T18:33:48.764Z,11.50
2018-12-03T18:36:48.383Z,11.50
2018-12-03T18:39:53.861Z,11.50
2018-12-03T18:42:51.630Z,11.50
2018-12-03T18:45:50.517Z,11.40
2018-12-03T18:48:51.812Z,11.40
2018-12-03T18:51:50.009Z,11.40
2018-12-03T18:54:47.278Z,11.40
2018-12-03T18:57:53.624Z,11.40
2018-12-03T19:00:54.290Z,11.30
2018-12-03T19:04:17.112Z,11.30
2018-12-03T19:07:15.444Z,11.20
2018-12-03T19:10:13.344Z,11.10
2018-12-03T19:13:11.061Z,11.10
2018-12-03T19:16:08.983Z,11.10
2018-12-03T19:19:10.046Z,11.00
2018-12-03T19:22:08.116Z,11.00
2018-12-03T19:25:06.505Z,11.00
2018-12-03T19:28:04.314Z,11.00
2018-12-03T19:31:04.818Z,10.90
2018-12-03T19:34:07.153Z,11.00
2018-12-03T19:37:06.170Z,11.10
2018-12-03T19:40:04.212Z,11.10
2018-12-03T19:43:02.630Z,11.10
2018-12-03T19:45:59.500Z,11.10
2018-12-03T19:48:57.779Z,11.10
2018-12-03T19:51:57.759Z,11.10
2018-12-03T19:54:57.216Z,11.10
2018-12-03T19:58:18.959Z,11.00
2018-12-03T20:01:24.260Z,9.90
2018-12-03T20:04:43.559Z,11.00
2018-12-03T20:07:41.622Z,11.00
2018-12-03T20:10:39.499Z,11.00
2018-12-03T20:13:37.390Z,11.00
2018-12-03T20:16:34.976Z,11.00
2018-12-03T20:19:32.703Z,11.00
2018-12-03T20:22:53.309Z,11.00
2018-12-03T20:26:15.528Z,11.00
2018-12-03T20:29:58.349Z,11.00
2018-12-03T20:33:11.671Z,11.00
2018-12-03T20:37:06.994Z,11.00
2018-12-03T20:40:52.393Z,11.10
2018-12-03T20:43:52.439Z,11.00
2018-12-03T20:47:36.666Z,11.00
2018-12-03T20:50:43.781Z,11.00
2018-12-03T20:53:48.628Z,10.90
2018-12-03T20:56:46.578Z,10.90
2018-12-03T20:59:44.443Z,10.90
2018-12-03T21:02:42.290Z,10.90
2018-12-03T21:05:39.664Z,10.90
2018-12-03T21:08:37.293Z,10.90
2018-12-03T21:11:34.888Z,10.90
2018-12-03T21:14:32.043Z,10.80
2018-12-03T21:17:29.626Z,10.80
2018-12-03T21:20:44.889Z,10.90
2018-12-03T21:23:42.654Z,10.70
2018-12-03T21:26:40.529Z,10.40
2018-12-03T21:29:38.297Z,10.30
2018-12-03T21:32:36.149Z,10.10
2018-12-03T21:35:33.810Z,10.00
2018-12-03T21:38:32.006Z,9.90
2018-12-03T21:41:29.793Z,9.80
2018-12-03T21:44:27.453Z,9.70
2018-12-03T21:47:25.014Z,9.70
2018-12-03T21:50:22.462Z,9.70
2018-12-03T21:53:20.394Z,9.70
2018-12-03T21:56:18.256Z,9.70
2018-12-03T21:59:15.858Z,9.70
2018-12-03T22:02:13.628Z,9.80
2018-12-03T22:05:11.186Z,9.90
2018-12-03T22:08:08.955Z,9.90
2018-12-03T22:11:06.720Z,9.80
2018-12-03T22:14:04.416Z,9.70
2018-12-03T22:17:02.514Z,9.60
2018-12-03T22:20:00.128Z,9.50
2018-12-03T22:22:57.924Z,9.50
2018-12-03T22:25:55.746Z,9.50
2018-12-03T22:28:54.272Z,9.50
2018-12-03T22:31:51.733Z,9.50
2018-12-03T22:34:49.306Z,9.50
2018-12-03T22:37:46.778Z,9.40
2018-12-03T22:40:44.710Z,9.40
2018-12-03T22:43:43.115Z,9.30
2018-12-03T22:46:40.797Z,9.20
2018-12-03T22:49:38.379Z,9.10
2018-12-03T22:52:35.826Z,9.20
2018-12-03T22:55:33.795Z,9.40
2018-12-03T22:58:31.413Z,9.30
2018-12-03T23:01:28.894Z,9.30
2018-12-03T23:04:26.377Z,9.20
2018-12-03T23:07:23.647Z,9.30
2018-12-03T23:10:21.418Z,9.30
2018-12-03T23:13:18.859Z,9.30
2018-12-03T23:16:16.760Z,9.40
2018-12-03T23:19:15.275Z,9.40
2018-12-03T23:22:13.145Z,9.30
2018-12-03T23:25:11.047Z,9.30
2018-12-03T23:28:08.416Z,9.10
2018-12-03T23:31:05.804Z,9.20
2018-12-03T23:34:03.503Z,9.20
2018-12-03T23:37:00.867Z,9.30
2018-12-03T23:39:58.253Z,9.60
2018-12-03T23:42:55.690Z,9.90
2018-12-03T23:45:54.658Z,10.30
2018-12-03T23:48:52.495Z,10.50
2018-12-03T23:51:49.526Z,10.60
2018-12-03T23:54:47.270Z,10.70
2018-12-03T23:57:45.812Z,10.70
